Time;durP1;ratioP1;P1;durP2;ratioP2;P2;SDS_P1;SDS_P2;PMS_P1;PMS_P2;Temp;Humidity;BMP_temperature;BMP_pressure;BME280_temperature;BME280_humidity;BME280_pressure;Samples;Min_cycle;Max_cycle;Signal;HPM_P1;HPM_P2
2024/03/09 00:00:25;;;;;;;14.00;8.85;;;;;;;;;;5091663;28;20023;-65
2024/03/09 00:02:52;;;;;;;27.02;10.25;;;;;;;;;;5092629;28;20050;-65
2024/03/09 00:05:19;;;;;;;17.25;10.35;;;;;;;;;;5091118;28;21121;-65
2024/03/09 00:07:46;;;;;;;23.58;10.32;;;;;;;;;;5095899;28;20055;-64
2024/03/09 00:10:16;;;;;;;22.38;11.18;;;;;;;;;;5085285;28;20028;-66
2024/03/09 00:12:43;;;;;;;17.10;9.70;;;;;;;;;;5093593;28;20028;-65
2024/03/09 00:15:11;;;;;;;20.10;9.63;;;;;;;;;;5098501;28;20040;-65
2024/03/09 00:17:41;;;;;;;15.13;8.50;;;;;;;;;;5092686;28;20028;-65
2024/03/09 00:20:09;;;;;;;16.83;9.93;;;;;;;;;;5096246;28;20031;-64
2024/03/09 00:22:37;;;;;;;10.82;7.57;;;;;;;;;;5090831;28;20536;-65
2024/03/09 00:25:04;;;;;;;24.77;9.43;;;;;;;;;;5075676;28;20023;-64
2024/03/09 00:27:30;;;;;;;12.00;6.07;;;;;;;;;;5077942;28;20034;-65
2024/03/09 00:29:56;;;;;;;18.23;7.65;;;;;;;;;;5094919;28;20032;-65
2024/03/09 00:32:25;;;;;;;20.27;9.07;;;;;;;;;;5100201;28;20073;-65
2024/03/09 00:34:51;;;;;;;21.08;9.15;;;;;;;;;;5075673;28;20028;-64
2024/03/09 00:37:17;;;;;;;15.30;7.78;;;;;;;;;;5099670;28;20138;-65
2024/03/09 00:39:43;;;;;;;16.30;8.43;;;;;;;;;;5094064;28;20032;-65
2024/03/09 00:42:14;;;;;;;13.50;8.25;;;;;;;;;;5098998;28;20027;-65
2024/03/09 00:44:44;;;;;;;14.52;8.98;;;;;;;;;;5073477;28;20448;-65
2024/03/09 00:47:10;;;;;;;14.00;8.02;;;;;;;;;;5074293;28;20055;-65
2024/03/09 00:49:36;;;;;;;15.90;7.60;;;;;;;;;;5092651;28;20032;-65
2024/03/09 00:52:05;;;;;;;16.35;7.72;;;;;;;;;;5076421;28;20415;-66
2024/03/09 00:54:32;;;;;;;17.70;7.43;;;;;;;;;;5096753;28;20030;-65
2024/03/09 00:56:58;;;;;;;22.33;6.05;;;;;;;;;;5103852;28;20035;-64
2024/03/09 00:59:24;;;;;;;13.88;7.57;;;;;;;;;;5097958;28;20019;-68
2024/03/09 01:01:51;;;;;;;18.23;8.55;;;;;;;;;;5094253;28;20384;-64
2024/03/09 01:04:17;;;;;;;15.45;8.10;;;;;;;;;;5095844;28;20031;-64
2024/03/09 01:06:43;;;;;;;14.32;8.25;;;;;;;;;;5095516;28;20017;-65
2024/03/09 01:09:10;;;;;;;13.25;8.05;;;;;;;;;;5093379;28;20520;-66
2024/03/09 01:11:38;;;;;;;13.68;8.57;;;;;;;;;;5097433;28;20043;-65
2024/03/09 01:14:04;;;;;;;15.73;7.47;;;;;;;;;;5080476;28;20496;-65
2024/03/09 01:16:30;;;;;;;19.63;7.25;;;;;;;;;;5089691;28;20036;-65
2024/03/09 01:18:56;;;;;;;21.67;7.57;;;;;;;;;;5076763;28;20023;-65
2024/03/09 01:21:23;;;;;;;16.42;8.02;;;;;;;;;;5092899;28;20426;-64
2024/03/09 01:23:49;;;;;;;17.83;7.57;;;;;;;;;;5098455;28;20476;-64
2024/03/09 01:26:15;;;;;;;18.05;9.38;;;;;;;;;;5091550;28;20065;-64
2024/03/09 01:28:41;;;;;;;18.17;9.10;;;;;;;;;;5091176;28;20035;-65
2024/03/09 01:31:13;;;;;;;22.85;10.10;;;;;;;;;;5096937;28;20480;-65
2024/03/09 01:33:39;;;;;;;12.95;6.82;;;;;;;;;;5092854;28;20389;-64
2024/03/09 01:36:06;;;;;;;14.88;6.97;;;;;;;;;;5094164;28;20032;-65
2024/03/09 01:38:32;;;;;;;16.77;7.65;;;;;;;;;;5090286;28;20081;-63
2024/03/09 01:40:58;;;;;;;12.75;7.28;;;;;;;;;;5091749;28;20040;-64
2024/03/09 01:43:25;;;;;;;14.38;6.47;;;;;;;;;;5055497;28;21071;-63
2024/03/09 01:45:51;;;;;;;10.88;7.45;;;;;;;;;;5089065;28;20462;-64
2024/03/09 01:48:20;;;;;;;16.15;9.40;;;;;;;;;;5086763;28;20320;-64
2024/03/09 01:50:47;;;;;;;12.52;7.47;;;;;;;;;;5095041;28;20057;-65
2024/03/09 01:53:14;;;;;;;12.15;7.25;;;;;;;;;;5089452;28;20029;-65
2024/03/09 01:55:43;;;;;;;16.30;8.18;;;;;;;;;;5083188;28;20063;-64
2024/03/09 01:58:10;;;;;;;19.65;9.38;;;;;;;;;;5090346;28;20609;-64
2024/03/09 02:00:37;;;;;;;17.30;7.55;;;;;;;;;;5077588;28;20020;-64
2024/03/09 02:03:08;;;;;;;13.80;8.52;;;;;;;;;;5098875;28;20554;-64
2024/03/09 02:05:39;;;;;;;17.63;8.90;;;;;;;;;;5094599;28;20024;-64
2024/03/09 02:08:06;;;;;;;14.65;8.20;;;;;;;;;;5096249;28;20042;-64
2024/03/09 02:10:34;;;;;;;16.55;9.85;;;;;;;;;;5082611;28;20019;-64
2024/03/09 02:13:02;;;;;;;17.20;8.20;;;;;;;;;;5081398;28;21400;-64
2024/03/09 02:15:29;;;;;;;25.73;11.68;;;;;;;;;;5093539;28;20100;-64
2024/03/09 02:17:58;;;;;;;21.80;10.00;;;;;;;;;;5095739;28;20095;-65
2024/03/09 02:20:30;;;;;;;20.83;9.93;;;;;;;;;;5101447;28;20785;-64
2024/03/09 02:22:57;;;;;;;22.42;8.88;;;;;;;;;;5100959;28;20016;-65
2024/03/09 02:25:24;;;;;;;13.35;7.72;;;;;;;;;;5097507;27;20016;-64
2024/03/09 02:27:53;;;;;;;19.00;9.15;;;;;;;;;;5077817;28;20523;-64
2024/03/09 02:30:20;;;;;;;27.35;9.80;;;;;;;;;;5102123;28;20036;-64
2024/03/09 02:32:49;;;;;;;12.57;9.15;;;;;;;;;;5098000;27;20027;-64
2024/03/09 02:35:15;;;;;;;25.25;11.93;;;;;;;;;;5092565;27;20020;-65
2024/03/09 02:37:41;;;;;;;25.33;11.20;;;;;;;;;;5092418;27;20072;-63
2024/03/09 02:40:07;;;;;;;24.30;11.45;;;;;;;;;;5096777;28;20161;-64
2024/03/09 02:42:38;;;;;;;23.35;8.18;;;;;;;;;;5092808;28;20054;-63
2024/03/09 02:45:05;;;;;;;24.00;12.52;;;;;;;;;;5093471;28;20019;-65
2024/03/09 02:47:31;;;;;;;14.52;8.43;;;;;;;;;;5085250;28;20480;-64
2024/03/09 02:49:57;;;;;;;22.08;8.73;;;;;;;;;;5098517;27;20032;-65
2024/03/09 02:52:24;;;;;;;20.13;9.82;;;;;;;;;;5096894;28;20028;-65
2024/03/09 02:54:51;;;;;;;20.00;10.15;;;;;;;;;;5092703;27;20036;-64
2024/03/09 02:57:17;;;;;;;15.50;8.55;;;;;;;;;;5097910;28;20624;-64
2024/03/09 02:59:44;;;;;;;24.15;12.18;;;;;;;;;;5094323;28;20031;-64
2024/03/09 03:05:03;;;;;;;19.40;10.35;;;;;;;;;;5072323;28;20032;-64
2024/03/09 03:07:30;;;;;;;25.95;12.98;;;;;;;;;;5099222;28;20020;-64
2024/03/09 03:09:58;;;;;;;14.50;7.57;;;;;;;;;;5077264;28;20032;-64
2024/03/09 03:12:26;;;;;;;25.38;10.75;;;;;;;;;;5098717;28;20496;-64
2024/03/09 03:14:52;;;;;;;18.95;9.00;;;;;;;;;;5095851;28;20035;-64
2024/03/09 03:17:18;;;;;;;33.53;10.80;;;;;;;;;;5094229;27;20493;-64
2024/03/09 03:19:44;;;;;;;22.65;11.77;;;;;;;;;;5094457;27;20496;-65
2024/03/09 03:22:10;;;;;;;26.25;12.15;;;;;;;;;;5088307;27;20024;-69
2024/03/09 03:24:38;;;;;;;21.25;9.70;;;;;;;;;;5081469;28;20024;-69
2024/03/09 03:27:04;;;;;;;20.95;9.52;;;;;;;;;;5102606;28;20031;-69
2024/03/09 03:29:30;;;;;;;23.08;11.80;;;;;;;;;;5093808;28;20066;-67
2024/03/09 03:31:58;;;;;;;18.10;8.77;;;;;;;;;;5103073;27;20138;-70
2024/03/09 03:34:25;;;;;;;19.60;10.82;;;;;;;;;;5100217;28;20019;-69
2024/03/09 03:36:52;;;;;;;25.52;11.32;;;;;;;;;;5096357;28;20151;-69
2024/03/09 03:39:18;;;;;;;17.40;9.82;;;;;;;;;;5095796;28;20032;-69
2024/03/09 03:41:44;;;;;;;22.23;12.38;;;;;;;;;;5090176;28;20493;-69
2024/03/09 03:44:10;;;;;;;30.70;13.93;;;;;;;;;;5100453;28;20032;-69
2024/03/09 03:46:37;;;;;;;20.65;11.18;;;;;;;;;;5080630;27;20046;-70
2024/03/09 03:49:04;;;;;;;26.92;11.95;;;;;;;;;;5091723;27;20497;-69
2024/03/09 03:51:30;;;;;;;17.42;10.73;;;;;;;;;;5095675;28;20050;-69
2024/03/09 03:53:57;;;;;;;23.63;10.48;;;;;;;;;;5078278;28;20027;-69
2024/03/09 03:56:26;;;;;;;25.02;12.45;;;;;;;;;;5092114;28;20445;-69
2024/03/09 03:58:53;;;;;;;24.83;12.73;;;;;;;;;;5091024;28;20063;-69
2024/03/09 04:01:21;;;;;;;21.83;11.75;;;;;;;;;;5099603;28;20354;-69
2024/03/09 04:03:47;;;;;;;26.23;12.27;;;;;;;;;;5099744;28;20052;-69
2024/03/09 04:06:14;;;;;;;16.38;8.15;;;;;;;;;;5093622;28;20087;-69
2024/03/09 04:08:40;;;;;;;18.23;10.00;;;;;;;;;;5093612;28;20020;-68
2024/03/09 04:11:06;;;;;;;24.83;13.50;;;;;;;;;;5096610;28;20028;-68
2024/03/09 04:13:35;;;;;;;35.47;13.27;;;;;;;;;;5090270;27;20036;-69
2024/03/09 04:16:01;;;;;;;24.00;11.90;;;;;;;;;;5095572;28;20520;-69
2024/03/09 04:18:29;;;;;;;26.85;12.65;;;;;;;;;;5095795;28;20028;-68
2024/03/09 04:20:56;;;;;;;26.00;12.15;;;;;;;;;;5094911;28;20031;-69
2024/03/09 04:23:22;;;;;;;27.58;13.48;;;;;;;;;;5090487;28;20023;-68
2024/03/09 04:25:56;;;;;;;24.45;14.32;;;;;;;;;;5079260;28;20031;-68
2024/03/09 04:28:27;;;;;;;18.80;11.80;;;;;;;;;;5093939;28;20363;-67
2024/03/09 04:30:54;;;;;;;21.52;9.60;;;;;;;;;;5090013;28;20038;-69
2024/03/09 04:33:21;;;;;;;23.55;10.80;;;;;;;;;;5089421;28;20036;-68
2024/03/09 04:35:48;;;;;;;27.02;12.77;;;;;;;;;;5095634;28;20038;-68
2024/03/09 04:38:14;;;;;;;26.98;14.35;;;;;;;;;;5088097;28;20068;-69
2024/03/09 04:40:43;;;;;;;32.33;14.30;;;;;;;;;;5095972;28;20036;-68
2024/03/09 04:43:11;;;;;;;27.80;14.70;;;;;;;;;;5078380;28;20496;-68
2024/03/09 04:45:37;;;;;;;24.50;12.68;;;;;;;;;;5086392;27;20032;-69
2024/03/09 04:48:04;;;;;;;35.17;14.00;;;;;;;;;;5097654;28;20055;-69
2024/03/09 04:50:33;;;;;;;29.27;12.80;;;;;;;;;;5096545;28;20076;-69
2024/03/09 04:52:59;;;;;;;28.27;12.68;;;;;;;;;;5093188;28;20400;-69
2024/03/09 04:55:30;;;;;;;27.85;11.95;;;;;;;;;;5098289;28;20035;-71
2024/03/09 04:57:57;;;;;;;23.77;12.35;;;;;;;;;;5100283;28;20039;-70
2024/03/09 05:00:25;;;;;;;26.63;15.23;;;;;;;;;;5082708;28;20111;-69
2024/03/09 05:02:51;;;;;;;36.60;12.18;;;;;;;;;;5095904;28;20019;-70
2024/03/09 05:05:18;;;;;;;32.55;13.57;;;;;;;;;;5075709;28;20516;-68
2024/03/09 05:07:48;;;;;;;33.83;14.05;;;;;;;;;;5099007;28;20077;-68
2024/03/09 05:10:22;;;;;;;26.17;12.35;;;;;;;;;;5076451;28;20115;-69
2024/03/09 05:12:56;;;;;;;24.55;13.43;;;;;;;;;;5075096;28;20508;-69
2024/03/09 05:15:25;;;;;;;32.13;14.00;;;;;;;;;;5088141;28;20039;-69
2024/03/09 05:17:54;;;;;;;21.73;13.68;;;;;;;;;;5075309;28;20055;-70
2024/03/09 05:20:22;;;;;;;26.85;13.38;;;;;;;;;;5080379;28;20059;-69
2024/03/09 05:22:51;;;;;;;28.40;13.98;;;;;;;;;;5087718;28;20068;-69
2024/03/09 05:25:19;;;;;;;19.85;12.07;;;;;;;;;;5068681;28;20027;-70
2024/03/09 05:27:45;;;;;;;26.92;13.82;;;;;;;;;;5095230;28;20023;-69
2024/03/09 05:30:16;;;;;;;29.83;16.13;;;;;;;;;;5093049;28;20686;-69
2024/03/09 05:32:45;;;;;;;23.92;12.68;;;;;;;;;;5097912;28;20051;-69
2024/03/09 05:35:13;;;;;;;31.65;14.27;;;;;;;;;;5088983;28;20028;-69
2024/03/09 05:37:40;;;;;;;29.73;14.25;;;;;;;;;;5099261;27;21150;-69
2024/03/09 05:40:09;;;;;;;39.00;16.33;;;;;;;;;;5102236;28;20043;-70
2024/03/09 05:42:36;;;;;;;37.45;12.73;;;;;;;;;;5101293;28;20024;-69
2024/03/09 05:45:03;;;;;;;22.00;12.80;;;;;;;;;;5098652;27;20016;-69
2024/03/09 05:47:30;;;;;;;36.60;14.07;;;;;;;;;;5082152;28;20400;-68
2024/03/09 05:49:57;;;;;;;31.45;14.55;;;;;;;;;;5075777;28;20031;-69
2024/03/09 05:52:23;;;;;;;29.77;14.10;;;;;;;;;;5104131;28;20027;-69
2024/03/09 05:54:49;;;;;;;20.73;11.23;;;;;;;;;;5104794;28;20096;-69
2024/03/09 05:57:15;;;;;;;25.38;12.68;;;;;;;;;;5103364;28;20088;-69
2024/03/09 05:59:42;;;;;;;29.08;13.60;;;;;;;;;;5097152;28;20063;-69
2024/03/09 06:02:09;;;;;;;25.85;12.68;;;;;;;;;;5097927;28;20055;-71
2024/03/09 06:04:35;;;;;;;22.27;10.48;;;;;;;;;;5101617;28;20501;-69
2024/03/09 06:07:01;;;;;;;22.48;12.60;;;;;;;;;;5097006;28;20109;-69
2024/03/09 06:09:28;;;;;;;26.52;13.50;;;;;;;;;;5092291;27;20035;-69
2024/03/09 06:11:54;;;;;;;24.13;14.07;;;;;;;;;;5083761;28;20022;-69
2024/03/09 06:14:22;;;;;;;24.50;13.40;;;;;;;;;;5097938;28;20142;-68
2024/03/09 06:16:48;;;;;;;29.75;12.73;;;;;;;;;;5100907;28;20139;-69
2024/03/09 06:19:15;;;;;;;19.20;10.85;;;;;;;;;;5087294;28;20080;-69
2024/03/09 06:21:41;;;;;;;21.58;12.05;;;;;;;;;;5081911;28;20368;-69
2024/03/09 06:24:07;;;;;;;23.73;12.75;;;;;;;;;;5099094;28;20032;-69
2024/03/09 06:26:34;;;;;;;23.20;12.15;;;;;;;;;;5089025;28;20392;-68
2024/03/09 06:29:00;;;;;;;20.25;11.55;;;;;;;;;;5101352;28;20390;-69
2024/03/09 06:31:26;;;;;;;27.75;13.80;;;;;;;;;;5103500;27;20388;-69
2024/03/09 06:33:52;;;;;;;29.23;13.10;;;;;;;;;;5098808;27;20605;-69
2024/03/09 06:36:18;;;;;;;31.42;14.32;;;;;;;;;;5093117;28;20016;-69
2024/03/09 06:38:45;;;;;;;27.48;14.60;;;;;;;;;;5097541;28;20084;-69
2024/03/09 06:41:11;;;;;;;28.58;12.82;;;;;;;;;;5078717;28;20128;-69
2024/03/09 06:43:37;;;;;;;25.77;11.52;;;;;;;;;;5098183;28;20435;-72
2024/03/09 06:46:08;;;;;;;30.02;14.57;;;;;;;;;;5098031;28;20024;-69
2024/03/09 06:48:34;;;;;;;31.25;13.52;;;;;;;;;;5089901;28;20054;-69
2024/03/09 06:51:00;;;;;;;34.00;15.43;;;;;;;;;;5096870;28;20024;-69
2024/03/09 06:53:29;;;;;;;28.75;13.95;;;;;;;;;;5094429;28;20103;-70
2024/03/09 06:56:03;;;;;;;25.85;14.43;;;;;;;;;;5096848;28;20053;-69
2024/03/09 06:58:29;;;;;;;26.10;12.43;;;;;;;;;;5074314;28;20030;-67
2024/03/09 07:00:57;;;;;;;33.08;13.77;;;;;;;;;;5097069;27;20035;-67
2024/03/09 07:03:23;;;;;;;20.58;10.10;;;;;;;;;;5097475;28;20023;-65
2024/03/09 07:05:49;;;;;;;29.42;14.70;;;;;;;;;;5076640;28;20027;-65
2024/03/09 07:08:15;;;;;;;28.58;13.40;;;;;;;;;;5092603;28;20020;-65
2024/03/09 07:10:41;;;;;;;27.30;14.40;;;;;;;;;;5100295;27;20046;-64
2024/03/09 07:13:09;;;;;;;29.90;12.18;;;;;;;;;;5098041;28;20035;-65
2024/03/09 07:15:37;;;;;;;17.27;10.48;;;;;;;;;;5089844;28;20031;-65
2024/03/09 07:18:03;;;;;;;23.02;13.30;;;;;;;;;;5081705;28;20036;-65
2024/03/09 07:20:32;;;;;;;37.67;13.63;;;;;;;;;;5091442;28;20055;-66
2024/03/09 07:22:58;;;;;;;28.85;11.82;;;;;;;;;;5089384;28;20401;-65
2024/03/09 07:25:25;;;;;;;24.70;12.35;;;;;;;;;;5095743;28;20497;-65
2024/03/09 07:27:55;;;;;;;29.88;12.40;;;;;;;;;;5091088;28;20028;-65
2024/03/09 07:30:22;;;;;;;27.70;12.80;;;;;;;;;;5080472;28;20118;-65
2024/03/09 07:32:50;;;;;;;34.97;13.60;;;;;;;;;;5103859;28;20103;-65
2024/03/09 07:35:18;;;;;;;39.58;14.23;;;;;;;;;;5096426;28;20028;-66
2024/03/09 07:37:52;;;;;;;20.30;10.73;;;;;;;;;;5091732;28;20086;-64
2024/03/09 07:40:20;;;;;;;31.90;14.75;;;;;;;;;;5078381;28;20043;-64
2024/03/09 07:42:48;;;;;;;21.90;12.32;;;;;;;;;;5097184;28;20516;-64
2024/03/09 07:45:14;;;;;;;22.13;11.05;;;;;;;;;;5098175;28;20051;-63
2024/03/09 07:47:45;;;;;;;33.70;12.35;;;;;;;;;;5072828;28;20065;-63
2024/03/09 07:50:15;;;;;;;26.60;14.02;;;;;;;;;;5077741;28;20027;-64
2024/03/09 07:52:46;;;;;;;28.45;11.10;;;;;;;;;;5071671;28;20497;-63
2024/03/09 07:55:12;;;;;;;28.05;13.05;;;;;;;;;;5076083;28;20510;-63
2024/03/09 07:57:40;;;;;;;28.58;12.75;;;;;;;;;;5077341;28;20032;-64
2024/03/09 08:00:07;;;;;;;30.70;11.90;;;;;;;;;;5097763;28;20043;-64
2024/03/09 08:02:34;;;;;;;21.42;11.57;;;;;;;;;;5093016;28;20110;-64
2024/03/09 08:05:04;;;;;;;20.40;11.90;;;;;;;;;;5097099;28;20335;-65
2024/03/09 08:07:35;;;;;;;25.90;12.70;;;;;;;;;;5092653;27;20081;-63
2024/03/09 08:10:01;;;;;;;25.85;11.35;;;;;;;;;;5101965;28;20395;-64
2024/03/09 08:12:27;;;;;;;24.35;12.98;;;;;;;;;;5091348;28;20100;-64
2024/03/09 08:14:53;;;;;;;26.50;12.40;;;;;;;;;;5074653;28;20027;-69
2024/03/09 08:17:20;;;;;;;21.58;13.50;;;;;;;;;;5095184;28;20473;-63
2024/03/09 08:19:47;;;;;;;23.30;11.23;;;;;;;;;;5087944;28;20020;-63
2024/03/09 08:22:13;;;;;;;32.80;12.80;;;;;;;;;;5095320;27;20097;-64
2024/03/09 08:24:39;;;;;;;22.95;12.88;;;;;;;;;;5090934;28;20054;-64
2024/03/09 08:27:06;;;;;;;26.25;12.65;;;;;;;;;;5091411;28;20032;-63
2024/03/09 08:29:32;;;;;;;22.58;13.35;;;;;;;;;;5092345;28;20051;-63
2024/03/09 08:31:59;;;;;;;24.15;12.30;;;;;;;;;;5098161;28;20346;-63
2024/03/09 08:34:25;;;;;;;29.25;13.32;;;;;;;;;;5093841;28;20024;-64
2024/03/09 08:36:51;;;;;;;18.45;10.25;;;;;;;;;;5095588;28;20044;-63
2024/03/09 08:39:18;;;;;;;23.98;11.88;;;;;;;;;;5092120;27;20093;-64
2024/03/09 08:41:46;;;;;;;40.17;14.23;;;;;;;;;;5091532;28;20378;-64
2024/03/09 08:44:13;;;;;;;31.75;13.07;;;;;;;;;;5078899;28;20034;-63
2024/03/09 08:46:39;;;;;;;24.40;11.98;;;;;;;;;;5096734;28;20405;-64
2024/03/09 08:49:05;;;;;;;25.23;11.45;;;;;;;;;;5095034;28;20032;-63
2024/03/09 08:51:33;;;;;;;26.85;13.43;;;;;;;;;;5084136;28;20050;-64
2024/03/09 08:54:00;;;;;;;24.15;11.40;;;;;;;;;;5092308;28;20443;-64
2024/03/09 08:56:27;;;;;;;24.52;12.50;;;;;;;;;;5095957;28;20028;-63
2024/03/09 08:58:53;;;;;;;23.70;12.43;;;;;;;;;;5095772;28;20032;-64
2024/03/09 09:01:19;;;;;;;25.63;12.40;;;;;;;;;;5074048;28;20043;-63
2024/03/09 09:03:45;;;;;;;23.27;12.80;;;;;;;;;;5092063;28;20024;-64
2024/03/09 09:06:11;;;;;;;19.63;11.57;;;;;;;;;;5088685;28;20035;-63
2024/03/09 09:08:37;;;;;;;25.70;12.98;;;;;;;;;;5085452;28;20114;-63
2024/03/09 09:11:04;;;;;;;25.45;10.77;;;;;;;;;;5089229;28;20073;-63
2024/03/09 09:13:31;;;;;;;23.60;12.07;;;;;;;;;;5100052;28;20032;-63
2024/03/09 09:15:58;;;;;;;26.67;12.35;;;;;;;;;;5104954;28;20023;-63
2024/03/09 09:18:24;;;;;;;23.83;12.30;;;;;;;;;;5094156;27;20088;-63
2024/03/09 09:20:52;;;;;;;23.83;12.68;;;;;;;;;;5083846;28;20024;-63
2024/03/09 09:23:20;;;;;;;29.33;12.07;;;;;;;;;;5101261;28;20469;-63
2024/03/09 09:25:46;;;;;;;27.02;12.75;;;;;;;;;;5096907;28;20027;-62
2024/03/09 09:28:15;;;;;;;24.63;12.65;;;;;;;;;;5099896;28;20619;-62
2024/03/09 09:30:44;;;;;;;24.35;13.48;;;;;;;;;;5099715;28;20062;-63
2024/03/09 09:33:13;;;;;;;21.83;10.05;;;;;;;;;;5106095;28;20031;-62
2024/03/09 09:35:39;;;;;;;30.15;14.88;;;;;;;;;;5080510;28;20044;-62
2024/03/09 09:38:05;;;;;;;26.65;13.85;;;;;;;;;;5101255;28;20036;-63
2024/03/09 09:40:32;;;;;;;26.00;12.93;;;;;;;;;;5078620;28;20507;-63
2024/03/09 09:43:02;;;;;;;28.70;12.05;;;;;;;;;;5095195;28;20019;-63
2024/03/09 09:45:33;;;;;;;32.72;11.82;;;;;;;;;;5079781;28;20023;-67
2024/03/09 09:48:00;;;;;;;27.08;13.40;;;;;;;;;;5099996;28;20593;-65
2024/03/09 09:50:26;;;;;;;25.67;11.55;;;;;;;;;;5081164;28;20020;-63
2024/03/09 09:52:52;;;;;;;27.63;13.05;;;;;;;;;;5098296;28;20027;-63
2024/03/09 09:55:22;;;;;;;31.98;12.48;;;;;;;;;;5096694;28;20028;-62
2024/03/09 09:57:51;;;;;;;29.40;14.55;;;;;;;;;;5095908;28;20028;-65
2024/03/09 10:00:18;;;;;;;26.92;12.32;;;;;;;;;;5088169;28;20444;-62
2024/03/09 10:02:44;;;;;;;25.70;11.95;;;;;;;;;;5093386;28;20030;-63
2024/03/09 10:05:14;;;;;;;28.35;13.57;;;;;;;;;;5081124;28;20501;-62
2024/03/09 10:07:59;;;;;;;27.40;11.88;;;;;;;;;;5099194;28;20115;-63
2024/03/09 10:10:30;;;;;;;30.65;11.27;;;;;;;;;;5090178;28;20477;-63
2024/03/09 10:13:09;;;;;;;19.65;11.23;;;;;;;;;;5099086;28;20114;-63
2024/03/09 10:15:38;;;;;;;20.25;9.85;;;;;;;;;;5076519;28;20024;-63
2024/03/09 10:18:04;;;;;;;20.10;11.18;;;;;;;;;;5089614;28;20056;-64
2024/03/09 10:20:32;;;;;;;26.27;12.32;;;;;;;;;;5091056;27;20028;-63
2024/03/09 10:23:01;;;;;;;17.58;10.02;;;;;;;;;;5099272;28;20431;-63
2024/03/09 10:25:34;;;;;;;40.67;14.00;;;;;;;;;;5092123;28;20381;-63
2024/03/09 10:28:01;;;;;;;30.45;12.15;;;;;;;;;;5085622;27;20036;-64
2024/03/09 10:30:27;;;;;;;28.10;12.68;;;;;;;;;;5092164;28;20053;-63
2024/03/09 10:32:54;;;;;;;36.85;14.50;;;;;;;;;;5090531;28;20051;-63
2024/03/09 10:35:25;;;;;;;26.77;13.38;;;;;;;;;;5099585;28;20019;-63
2024/03/09 10:37:57;;;;;;;19.10;10.98;;;;;;;;;;5102931;28;20100;-64
2024/03/09 10:40:25;;;;;;;28.88;13.50;;;;;;;;;;5094322;27;20039;-63
2024/03/09 10:42:54;;;;;;;26.20;12.23;;;;;;;;;;5089721;27;20089;-63
2024/03/09 10:45:29;;;;;;;19.88;10.45;;;;;;;;;;5095519;28;20023;-63
2024/03/09 10:47:59;;;;;;;25.63;14.45;;;;;;;;;;5097317;28;20504;-64
2024/03/09 10:50:26;;;;;;;27.33;13.25;;;;;;;;;;5097253;28;20031;-63
2024/03/09 10:53:13;;;;;;;25.83;11.80;;;;;;;;;;5083080;28;20043;-63
2024/03/09 10:55:39;;;;;;;33.13;13.27;;;;;;;;;;5098665;28;20039;-64
2024/03/09 10:58:06;;;;;;;23.23;11.70;;;;;;;;;;5100491;27;20034;-63
2024/03/09 11:00:33;;;;;;;27.75;11.88;;;;;;;;;;5097962;28;20028;-64
2024/03/09 11:03:03;;;;;;;34.60;13.20;;;;;;;;;;5098269;28;20036;-63
2024/03/09 11:05:30;;;;;;;26.42;12.25;;;;;;;;;;5094529;28;20036;-63
2024/03/09 11:07:56;;;;;;;30.80;13.60;;;;;;;;;;5101215;28;20028;-63
2024/03/09 11:10:23;;;;;;;31.88;14.00;;;;;;;;;;5094152;28;20508;-64
2024/03/09 11:12:50;;;;;;;34.15;13.80;;;;;;;;;;5097783;28;20113;-64
2024/03/09 11:15:16;;;;;;;19.90;11.48;;;;;;;;;;5101158;28;20035;-64
2024/03/09 11:17:45;;;;;;;24.27;12.30;;;;;;;;;;5068169;28;20035;-63
2024/03/09 11:20:12;;;;;;;21.60;11.88;;;;;;;;;;5094646;28;20046;-63
2024/03/09 11:22:45;;;;;;;26.45;12.13;;;;;;;;;;5092627;27;20380;-64
2024/03/09 11:25:13;;;;;;;22.48;12.68;;;;;;;;;;5086813;28;20016;-63
2024/03/09 11:27:41;;;;;;;35.40;14.40;;;;;;;;;;5105491;28;20110;-63
2024/03/09 11:30:12;;;;;;;27.88;12.48;;;;;;;;;;5093056;28;20092;-63
2024/03/09 11:32:43;;;;;;;23.83;12.25;;;;;;;;;;5100057;28;20031;-63
2024/03/09 11:35:28;;;;;;;24.38;13.85;;;;;;;;;;5088137;28;20047;-63
2024/03/09 11:38:00;;;;;;;17.83;9.82;;;;;;;;;;5089662;28;20595;-63
2024/03/09 11:40:29;;;;;;;19.25;11.88;;;;;;;;;;5089212;28;20040;-63
2024/03/09 11:43:14;;;;;;;24.45;11.88;;;;;;;;;;5091432;28;20034;-63
2024/03/09 11:45:40;;;;;;;22.38;12.10;;;;;;;;;;5093693;28;20477;-63
2024/03/09 11:48:10;;;;;;;32.08;15.35;;;;;;;;;;5095580;28;20036;-63
2024/03/09 11:50:40;;;;;;;30.73;12.27;;;;;;;;;;5089561;28;20039;-64
2024/03/09 11:53:10;;;;;;;23.00;12.85;;;;;;;;;;5081651;28;20035;-63
2024/03/09 11:55:39;;;;;;;19.05;11.63;;;;;;;;;;5094477;28;20027;-63
2024/03/09 11:58:09;;;;;;;30.30;13.07;;;;;;;;;;5093373;28;20039;-63
2024/03/09 12:00:35;;;;;;;35.72;14.90;;;;;;;;;;5094080;27;20110;-63
2024/03/09 12:03:13;;;;;;;25.63;13.13;;;;;;;;;;5098285;27;20536;-63
2024/03/09 12:05:40;;;;;;;31.13;14.07;;;;;;;;;;5086416;28;20027;-63
2024/03/09 12:08:10;;;;;;;28.83;12.75;;;;;;;;;;5094962;28;20028;-63
2024/03/09 12:10:37;;;;;;;30.10;13.88;;;;;;;;;;5094116;27;20024;-63
2024/03/09 12:13:04;;;;;;;29.75;12.18;;;;;;;;;;5075032;28;20548;-63
2024/03/09 12:15:30;;;;;;;25.02;12.50;;;;;;;;;;5089367;28;22631;-63
2024/03/09 12:17:57;;;;;;;23.52;12.23;;;;;;;;;;5087860;28;20504;-63
2024/03/09 12:20:24;;;;;;;30.77;13.95;;;;;;;;;;5092584;28;20587;-63
2024/03/09 12:22:50;;;;;;;24.77;13.75;;;;;;;;;;5079604;28;20032;-63
2024/03/09 12:25:17;;;;;;;31.30;14.45;;;;;;;;;;5084550;28;20235;-63
2024/03/09 12:27:43;;;;;;;31.02;14.73;;;;;;;;;;5082060;28;20027;-63
2024/03/09 12:30:11;;;;;;;26.90;11.43;;;;;;;;;;5074723;28;20036;-63
2024/03/09 12:32:38;;;;;;;36.28;14.40;;;;;;;;;;5080352;28;20432;-63
2024/03/09 12:35:05;;;;;;;39.20;15.57;;;;;;;;;;5093973;28;20031;-63
2024/03/09 12:37:34;;;;;;;40.15;15.90;;;;;;;;;;5091345;28;20052;-63
2024/03/09 12:40:11;;;;;;;36.72;16.20;;;;;;;;;;5070661;28;20031;-63
2024/03/09 12:42:42;;;;;;;34.47;14.80;;;;;;;;;;5070381;28;20024;-63
2024/03/09 12:45:28;;;;;;;24.70;12.85;;;;;;;;;;5094088;28;20611;-63
2024/03/09 12:47:55;;;;;;;39.47;14.80;;;;;;;;;;5091980;28;20024;-63
2024/03/09 12:50:22;;;;;;;27.30;15.07;;;;;;;;;;5074300;28;20432;-63
2024/03/09 12:52:49;;;;;;;33.25;13.25;;;;;;;;;;5094646;28;20469;-63
2024/03/09 12:55:16;;;;;;;28.35;13.77;;;;;;;;;;5084835;28;20032;-63
2024/03/09 12:57:43;;;;;;;29.38;13.02;;;;;;;;;;5082124;28;20038;-63
2024/03/09 13:00:19;;;;;;;44.17;15.93;;;;;;;;;;5083077;28;20797;-63
2024/03/09 13:02:48;;;;;;;;;;;;;;;;;;5089090;28;20032;-63
2024/03/09 13:05:16;;;;;;;29.35;13.55;;;;;;;;;;5082653;28;19908;-63
2024/03/09 13:07:45;;;;;;;32.40;14.95;;;;;;;;;;5081331;28;20084;-62
2024/03/09 13:10:18;;;;;;;31.83;13.82;;;;;;;;;;5071848;28;20055;-63
2024/03/09 13:12:47;;;;;;;21.27;11.63;;;;;;;;;;5093824;28;20480;-63
2024/03/09 13:15:18;;;;;;;37.97;17.20;;;;;;;;;;5078909;28;20040;-64
2024/03/09 13:17:44;;;;;;;38.80;15.80;;;;;;;;;;5100542;28;20396;-63
2024/03/09 13:20:17;;;;;;;38.92;16.48;;;;;;;;;;5077307;28;20467;-63
2024/03/09 13:22:44;;;;;;;40.00;17.23;;;;;;;;;;5093419;28;20019;-63
2024/03/09 13:25:13;;;;;;;33.78;14.38;;;;;;;;;;5094127;28;20020;-63
2024/03/09 13:27:40;;;;;;;37.22;15.93;;;;;;;;;;5072622;28;20024;-62
2024/03/09 13:30:25;;;;;;;35.72;14.82;;;;;;;;;;5090901;28;20042;-63
2024/03/09 13:32:51;;;;;;;38.43;14.73;;;;;;;;;;5087034;28;20385;-63
2024/03/09 13:35:22;;;;;;;41.42;18.88;;;;;;;;;;5090336;28;20613;-62
2024/03/09 13:37:49;;;;;;;42.33;17.48;;;;;;;;;;5077068;28;20544;-64
2024/03/09 13:40:21;;;;;;;35.28;15.23;;;;;;;;;;5084201;28;20030;-62
2024/03/09 13:42:51;;;;;;;40.78;15.13;;;;;;;;;;5071568;28;20020;-64
2024/03/09 13:45:17;;;;;;;41.92;14.52;;;;;;;;;;5074521;28;20504;-62
2024/03/09 13:47:43;;;;;;;39.28;16.25;;;;;;;;;;5072181;28;20024;-63
2024/03/09 13:50:11;;;;;;;35.20;15.82;;;;;;;;;;5079893;28;20035;-63
2024/03/09 13:52:40;;;;;;;27.38;13.95;;;;;;;;;;5072050;28;20097;-63
2024/03/09 13:55:12;;;;;;;39.83;14.85;;;;;;;;;;5076241;28;20486;-63
2024/03/09 13:57:40;;;;;;;30.85;17.80;;;;;;;;;;5068743;28;20087;-63
2024/03/09 14:00:10;;;;;;;30.10;14.80;;;;;;;;;;5069454;28;20557;-65
2024/03/09 14:02:37;;;;;;;39.55;16.45;;;;;;;;;;5080391;28;20031;-64
2024/03/09 14:05:07;;;;;;;35.53;15.30;;;;;;;;;;5077819;28;20024;-64
2024/03/09 14:07:33;;;;;;;38.55;18.02;;;;;;;;;;5074106;28;20508;-64
2024/03/09 14:10:00;;;;;;;29.65;13.75;;;;;;;;;;5074699;28;20024;-64
2024/03/09 14:12:26;;;;;;;45.40;16.25;;;;;;;;;;5073440;28;20036;-64
2024/03/09 14:14:53;;;;;;;30.15;16.27;;;;;;;;;;5080331;28;20474;-64
2024/03/09 14:17:20;;;;;;;36.45;15.57;;;;;;;;;;5077910;28;20044;-64
2024/03/09 14:19:50;;;;;;;34.63;17.15;;;;;;;;;;5080991;28;20033;-64
2024/03/09 14:22:22;;;;;;;38.20;16.60;;;;;;;;;;5077488;28;20477;-64
2024/03/09 14:24:49;;;;;;;66.18;23.20;;;;;;;;;;5080029;28;20020;-65
2024/03/09 14:27:18;;;;;;;38.58;18.48;;;;;;;;;;5083559;28;20020;-68